sensor_id;sensor_type;location;lat;lon;timestamp;temperature;humidity
70830;SHT30;58451;51.550;7.208;2024-01-30T00:00:52;8.52;76.62
70830;SHT30;58451;51.550;7.208;2024-01-30T00:02:24;8.52;76.60
70830;SHT30;58451;51.550;7.208;2024-01-30T00:03:56;8.52;76.70
70830;SHT30;58451;51.550;7.208;2024-01-30T00:05:28;8.52;76.68
70830;SHT30;58451;51.550;7.208;2024-01-30T00:07:00;8.51;76.70
70830;SHT30;58451;51.550;7.208;2024-01-30T00:08:32;8.50;76.73
70830;SHT30;58451;51.550;7.208;2024-01-30T00:10:04;8.49;76.75
70830;SHT30;58451;51.550;7.208;2024-01-30T00:11:37;8.49;76.77
70830;SHT30;58451;51.550;7.208;2024-01-30T00:13:09;8.49;76.82
70830;SHT30;58451;51.550;7.208;2024-01-30T00:14:41;8.49;76.77
70830;SHT30;58451;51.550;7.208;2024-01-30T00:16:21;8.47;76.73
70830;SHT30;58451;51.550;7.208;2024-01-30T00:17:58;8.47;76.85
70830;SHT30;58451;51.550;7.208;2024-01-30T00:19:30;8.46;76.82
70830;SHT30;58451;51.550;7.208;2024-01-30T00:21:02;8.44;76.82
70830;SHT30;58451;51.550;7.208;2024-01-30T00:22:41;8.43;76.87
70830;SHT30;58451;51.550;7.208;2024-01-30T00:24:13;8.40;76.87
70830;SHT30;58451;51.550;7.208;2024-01-30T00:25:45;8.40;76.85
70830;SHT30;58451;51.550;7.208;2024-01-30T00:27:17;8.38;76.87
70830;SHT30;58451;51.550;7.208;2024-01-30T00:28:48;8.37;76.90
70830;SHT30;58451;51.550;7.208;2024-01-30T00:30:20;8.35;76.90
70830;SHT30;58451;51.550;7.208;2024-01-30T00:31:52;8.32;76.93
70830;SHT30;58451;51.550;7.208;2024-01-30T00:33:27;8.31;76.95
70830;SHT30;58451;51.550;7.208;2024-01-30T00:34:58;8.29;76.98
70830;SHT30;58451;51.550;7.208;2024-01-30T00:36:31;8.29;77.02
70830;SHT30;58451;51.550;7.208;2024-01-30T00:38:02;8.27;76.95
70830;SHT30;58451;51.550;7.208;2024-01-30T00:39:34;8.27;77.08
70830;SHT30;58451;51.550;7.208;2024-01-30T00:41:07;8.26;77.12
70830;SHT30;58451;51.550;7.208;2024-01-30T00:42:43;8.26;77.10
70830;SHT30;58451;51.550;7.208;2024-01-30T00:44:15;8.25;77.03
70830;SHT30;58451;51.550;7.208;2024-01-30T00:45:52;8.25;77.05
70830;SHT30;58451;51.550;7.208;2024-01-30T00:47:28;8.25;77.08
70830;SHT30;58451;51.550;7.208;2024-01-30T00:49:00;8.26;77.17
70830;SHT30;58451;51.550;7.208;2024-01-30T00:50:32;8.26;77.15
70830;SHT30;58451;51.550;7.208;2024-01-30T00:52:04;8.26;77.17
70830;SHT30;58451;51.550;7.208;2024-01-30T00:53:36;8.26;77.13
70830;SHT30;58451;51.550;7.208;2024-01-30T00:55:08;8.27;77.20
70830;SHT30;58451;51.550;7.208;2024-01-30T00:56:40;8.26;77.20
70830;SHT30;58451;51.550;7.208;2024-01-30T00:58:12;8.28;77.27
70830;SHT30;58451;51.550;7.208;2024-01-30T00:59:44;8.28;77.17
70830;SHT30;58451;51.550;7.208;2024-01-30T01:01:16;8.29;77.27
70830;SHT30;58451;51.550;7.208;2024-01-30T01:02:48;8.32;77.27
70830;SHT30;58451;51.550;7.208;2024-01-30T01:04:20;8.32;77.27
70830;SHT30;58451;51.550;7.208;2024-01-30T01:05:53;8.35;77.17
70830;SHT30;58451;51.550;7.208;2024-01-30T01:07:24;8.36;77.22
70830;SHT30;58451;51.550;7.208;2024-01-30T01:08:56;8.36;77.28
70830;SHT30;58451;51.550;7.208;2024-01-30T01:10:28;8.37;77.32
70830;SHT30;58451;51.550;7.208;2024-01-30T01:12:00;8.38;77.32
70830;SHT30;58451;51.550;7.208;2024-01-30T01:13:34;8.41;77.25
70830;SHT30;58451;51.550;7.208;2024-01-30T01:15:06;8.40;77.25
70830;SHT30;58451;51.550;7.208;2024-01-30T01:16:41;8.42;77.25
70830;SHT30;58451;51.550;7.208;2024-01-30T01:18:12;8.43;76.97
70830;SHT30;58451;51.550;7.208;2024-01-30T01:19:47;8.45;76.68
70830;SHT30;58451;51.550;7.208;2024-01-30T01:21:19;8.45;76.88
70830;SHT30;58451;51.550;7.208;2024-01-30T01:22:51;8.46;76.93
70830;SHT30;58451;51.550;7.208;2024-01-30T01:24:24;8.47;77.03
70830;SHT30;58451;51.550;7.208;2024-01-30T01:25:55;8.46;77.10
70830;SHT30;58451;51.550;7.208;2024-01-30T01:27:31;8.46;77.07
70830;SHT30;58451;51.550;7.208;2024-01-30T01:29:04;8.45;77.07
70830;SHT30;58451;51.550;7.208;2024-01-30T01:30:41;8.44;77.05
70830;SHT30;58451;51.550;7.208;2024-01-30T01:32:13;8.44;77.10
70830;SHT30;58451;51.550;7.208;2024-01-30T01:33:45;8.43;77.15
70830;SHT30;58451;51.550;7.208;2024-01-30T01:35:17;8.43;77.07
70830;SHT30;58451;51.550;7.208;2024-01-30T01:36:49;8.43;77.10
70830;SHT30;58451;51.550;7.208;2024-01-30T01:38:22;8.41;77.07
70830;SHT30;58451;51.550;7.208;2024-01-30T01:39:54;8.41;77.07
70830;SHT30;58451;51.550;7.208;2024-01-30T01:41:29;8.40;77.15
70830;SHT30;58451;51.550;7.208;2024-01-30T01:43:03;8.39;77.13
70830;SHT30;58451;51.550;7.208;2024-01-30T01:44:36;8.39;77.13
70830;SHT30;58451;51.550;7.208;2024-01-30T01:46:08;8.38;77.15
70830;SHT30;58451;51.550;7.208;2024-01-30T01:47:40;8.37;77.15
70830;SHT30;58451;51.550;7.208;2024-01-30T01:49:13;8.37;77.15
70830;SHT30;58451;51.550;7.208;2024-01-30T01:50:46;8.36;77.15
70830;SHT30;58451;51.550;7.208;2024-01-30T01:52:18;8.34;77.13
70830;SHT30;58451;51.550;7.208;2024-01-30T01:53:50;8.34;77.15
70830;SHT30;58451;51.550;7.208;2024-01-30T01:55:22;8.33;77.17
70830;SHT30;58451;51.550;7.208;2024-01-30T01:56:56;8.31;77.13
70830;SHT30;58451;51.550;7.208;2024-01-30T01:58:28;8.31;77.15
70830;SHT30;58451;51.550;7.208;2024-01-30T02:00:01;8.29;77.22
70830;SHT30;58451;51.550;7.208;2024-01-30T02:01:39;8.30;77.23
70830;SHT30;58451;51.550;7.208;2024-01-30T02:03:15;8.28;77.17
70830;SHT30;58451;51.550;7.208;2024-01-30T02:04:50;8.27;77.08
70830;SHT30;58451;51.550;7.208;2024-01-30T02:06:22;8.29;77.00
70830;SHT30;58451;51.550;7.208;2024-01-30T02:07:54;8.31;77.10
70830;SHT30;58451;51.550;7.208;2024-01-30T02:09:27;8.33;77.18
70830;SHT30;58451;51.550;7.208;2024-01-30T02:10:59;8.33;77.07
70830;SHT30;58451;51.550;7.208;2024-01-30T02:12:31;8.32;77.13
70830;SHT30;58451;51.550;7.208;2024-01-30T02:14:03;8.31;77.18
70830;SHT30;58451;51.550;7.208;2024-01-30T02:15:36;8.30;77.12
70830;SHT30;58451;51.550;7.208;2024-01-30T02:17:08;8.30;77.07
70830;SHT30;58451;51.550;7.208;2024-01-30T02:18:40;8.28;77.07
70830;SHT30;58451;51.550;7.208;2024-01-30T02:20:16;8.27;77.05
70830;SHT30;58451;51.550;7.208;2024-01-30T02:21:49;8.27;77.15
70830;SHT30;58451;51.550;7.208;2024-01-30T02:23:22;8.25;77.10
70830;SHT30;58451;51.550;7.208;2024-01-30T02:24:58;8.24;77.08
70830;SHT30;58451;51.550;7.208;2024-01-30T02:26:30;8.23;77.15
70830;SHT30;58451;51.550;7.208;2024-01-30T02:28:02;8.22;77.10
70830;SHT30;58451;51.550;7.208;2024-01-30T02:29:34;8.21;77.07
70830;SHT30;58451;51.550;7.208;2024-01-30T02:31:06;8.20;77.12
70830;SHT30;58451;51.550;7.208;2024-01-30T02:32:38;8.19;77.15
70830;SHT30;58451;51.550;7.208;2024-01-30T02:34:10;8.17;77.20
70830;SHT30;58451;51.550;7.208;2024-01-30T02:35:42;8.16;77.23
70830;SHT30;58451;51.550;7.208;2024-01-30T02:37:16;8.14;77.23
70830;SHT30;58451;51.550;7.208;2024-01-30T02:38:50;8.13;77.23
70830;SHT30;58451;51.550;7.208;2024-01-30T02:40:26;8.09;77.22
70830;SHT30;58451;51.550;7.208;2024-01-30T02:42:00;8.08;77.22
70830;SHT30;58451;51.550;7.208;2024-01-30T02:43:32;8.06;77.25
70830;SHT30;58451;51.550;7.208;2024-01-30T02:45:04;8.04;77.30
70830;SHT30;58451;51.550;7.208;2024-01-30T02:46:37;8.03;77.25
70830;SHT30;58451;51.550;7.208;2024-01-30T02:48:09;8.02;77.32
70830;SHT30;58451;51.550;7.208;2024-01-30T02:49:40;7.99;77.42
70830;SHT30;58451;51.550;7.208;2024-01-30T02:51:12;7.98;77.42
70830;SHT30;58451;51.550;7.208;2024-01-30T02:52:44;7.98;77.45
70830;SHT30;58451;51.550;7.208;2024-01-30T02:54:16;7.97;77.53
70830;SHT30;58451;51.550;7.208;2024-01-30T02:55:48;7.98;77.48
70830;SHT30;58451;51.550;7.208;2024-01-30T02:57:20;7.99;77.50
70830;SHT30;58451;51.550;7.208;2024-01-30T02:58:52;7.98;77.50
70830;SHT30;58451;51.550;7.208;2024-01-30T03:00:24;7.99;77.43
70830;SHT30;58451;51.550;7.208;2024-01-30T03:01:56;7.99;77.57
70830;SHT30;58451;51.550;7.208;2024-01-30T03:03:28;7.99;77.55
70830;SHT30;58451;51.550;7.208;2024-01-30T03:05:00;8.00;77.62
70830;SHT30;58451;51.550;7.208;2024-01-30T03:06:32;8.00;77.52
70830;SHT30;58451;51.550;7.208;2024-01-30T03:08:04;8.00;77.55
70830;SHT30;58451;51.550;7.208;2024-01-30T03:09:37;7.99;77.48
70830;SHT30;58451;51.550;7.208;2024-01-30T03:11:09;7.97;77.55
70830;SHT30;58451;51.550;7.208;2024-01-30T03:12:41;7.99;77.67
70830;SHT30;58451;51.550;7.208;2024-01-30T03:14:13;8.00;77.68
70830;SHT30;58451;51.550;7.208;2024-01-30T03:15:47;8.02;77.72
70830;SHT30;58451;51.550;7.208;2024-01-30T03:17:19;8.03;77.65
70830;SHT30;58451;51.550;7.208;2024-01-30T03:18:51;8.07;77.67
70830;SHT30;58451;51.550;7.208;2024-01-30T03:20:23;8.06;77.78
70830;SHT30;58451;51.550;7.208;2024-01-30T03:21:55;8.08;77.78
70830;SHT30;58451;51.550;7.208;2024-01-30T03:23:27;8.12;77.62
70830;SHT30;58451;51.550;7.208;2024-01-30T03:24:59;8.14;77.63
70830;SHT30;58451;51.550;7.208;2024-01-30T03:26:31;8.15;77.60
70830;SHT30;58451;51.550;7.208;2024-01-30T03:28:03;8.17;77.53
70830;SHT30;58451;51.550;7.208;2024-01-30T03:29:35;8.19;77.53
70830;SHT30;58451;51.550;7.208;2024-01-30T03:31:07;8.21;77.57
70830;SHT30;58451;51.550;7.208;2024-01-30T03:32:38;8.21;77.55
70830;SHT30;58451;51.550;7.208;2024-01-30T03:34:10;8.22;77.55
70830;SHT30;58451;51.550;7.208;2024-01-30T03:35:43;8.23;77.43
70830;SHT30;58451;51.550;7.208;2024-01-30T03:37:14;8.24;77.50
70830;SHT30;58451;51.550;7.208;2024-01-30T03:38:46;8.27;77.65
70830;SHT30;58451;51.550;7.208;2024-01-30T03:40:18;8.26;77.50
70830;SHT30;58451;51.550;7.208;2024-01-30T03:41:50;8.26;77.55
70830;SHT30;58451;51.550;7.208;2024-01-30T03:43:22;8.25;77.55
70830;SHT30;58451;51.550;7.208;2024-01-30T03:44:53;8.25;77.63
70830;SHT30;58451;51.550;7.208;2024-01-30T03:46:26;8.25;77.60
70830;SHT30;58451;51.550;7.208;2024-01-30T03:47:58;8.27;77.68
70830;SHT30;58451;51.550;7.208;2024-01-30T03:49:30;8.28;77.40
70830;SHT30;58451;51.550;7.208;2024-01-30T03:51:02;8.31;77.55
70830;SHT30;58451;51.550;7.208;2024-01-30T03:52:34;8.32;77.53
70830;SHT30;58451;51.550;7.208;2024-01-30T03:54:06;8.31;77.62
70830;SHT30;58451;51.550;7.208;2024-01-30T03:55:38;8.31;77.43
70830;SHT30;58451;51.550;7.208;2024-01-30T03:57:10;8.33;77.32
70830;SHT30;58451;51.550;7.208;2024-01-30T03:58:43;8.33;77.38
70830;SHT30;58451;51.550;7.208;2024-01-30T04:00:15;8.33;77.43
70830;SHT30;58451;51.550;7.208;2024-01-30T04:01:50;8.33;77.47
70830;SHT30;58451;51.550;7.208;2024-01-30T04:03:23;8.34;77.48
70830;SHT30;58451;51.550;7.208;2024-01-30T04:04:55;8.32;77.48
70830;SHT30;58451;51.550;7.208;2024-01-30T04:06:27;8.31;77.55
70830;SHT30;58451;51.550;7.208;2024-01-30T04:07:59;8.31;77.45
70830;SHT30;58451;51.550;7.208;2024-01-30T04:09:31;8.29;77.40
70830;SHT30;58451;51.550;7.208;2024-01-30T04:11:04;8.30;77.47
70830;SHT30;58451;51.550;7.208;2024-01-30T04:12:42;8.29;77.47
70830;SHT30;58451;51.550;7.208;2024-01-30T04:14:14;8.28;77.47
70830;SHT30;58451;51.550;7.208;2024-01-30T04:15:47;8.28;77.32
70830;SHT30;58451;51.550;7.208;2024-01-30T04:17:19;8.27;77.32
70830;SHT30;58451;51.550;7.208;2024-01-30T04:18:51;8.27;77.35
70830;SHT30;58451;51.550;7.208;2024-01-30T04:20:24;8.25;77.37
70830;SHT30;58451;51.550;7.208;2024-01-30T04:21:57;8.24;77.42
70830;SHT30;58451;51.550;7.208;2024-01-30T04:23:29;8.22;77.43
70830;SHT30;58451;51.550;7.208;2024-01-30T04:25:01;8.21;77.52
70830;SHT30;58451;51.550;7.208;2024-01-30T04:26:34;8.22;77.62
70830;SHT30;58451;51.550;7.208;2024-01-30T04:28:05;8.22;77.67
70830;SHT30;58451;51.550;7.208;2024-01-30T04:29:40;8.22;77.65
70830;SHT30;58451;51.550;7.208;2024-01-30T04:31:12;8.23;77.63
70830;SHT30;58451;51.550;7.208;2024-01-30T04:32:44;8.23;77.70
70830;SHT30;58451;51.550;7.208;2024-01-30T04:34:16;8.24;77.62
70830;SHT30;58451;51.550;7.208;2024-01-30T04:35:48;8.22;77.63
70830;SHT30;58451;51.550;7.208;2024-01-30T04:37:19;8.21;77.58
70830;SHT30;58451;51.550;7.208;2024-01-30T04:38:51;8.20;77.53
70830;SHT30;58451;51.550;7.208;2024-01-30T04:40:23;8.21;77.60
70830;SHT30;58451;51.550;7.208;2024-01-30T04:41:56;8.21;77.70
70830;SHT30;58451;51.550;7.208;2024-01-30T04:43:28;8.21;77.65
70830;SHT30;58451;51.550;7.208;2024-01-30T04:44:59;8.20;77.60
70830;SHT30;58451;51.550;7.208;2024-01-30T04:46:31;8.21;77.78
70830;SHT30;58451;51.550;7.208;2024-01-30T04:48:05;8.23;77.73
70830;SHT30;58451;51.550;7.208;2024-01-30T04:49:40;8.25;77.78
70830;SHT30;58451;51.550;7.208;2024-01-30T04:51:13;8.27;77.73
70830;SHT30;58451;51.550;7.208;2024-01-30T04:52:44;8.28;77.75
70830;SHT30;58451;51.550;7.208;2024-01-30T04:54:16;8.30;77.72
70830;SHT30;58451;51.550;7.208;2024-01-30T04:55:50;8.31;77.75
70830;SHT30;58451;51.550;7.208;2024-01-30T04:57:22;8.33;77.78
70830;SHT30;58451;51.550;7.208;2024-01-30T04:58:59;8.35;77.77
70830;SHT30;58451;51.550;7.208;2024-01-30T05:00:33;8.35;77.75
70830;SHT30;58451;51.550;7.208;2024-01-30T05:02:05;8.34;77.70
70830;SHT30;58451;51.550;7.208;2024-01-30T05:03:37;8.37;77.75
70830;SHT30;58451;51.550;7.208;2024-01-30T05:05:09;8.36;77.77
70830;SHT30;58451;51.550;7.208;2024-01-30T05:06:42;8.36;77.92
70830;SHT30;58451;51.550;7.208;2024-01-30T05:08:14;8.37;77.80
70830;SHT30;58451;51.550;7.208;2024-01-30T05:09:46;8.37;77.73
70830;SHT30;58451;51.550;7.208;2024-01-30T05:11:19;8.38;77.78
70830;SHT30;58451;51.550;7.208;2024-01-30T05:12:51;8.36;77.72
70830;SHT30;58451;51.550;7.208;2024-01-30T05:14:23;8.36;77.80
70830;SHT30;58451;51.550;7.208;2024-01-30T05:15:55;8.36;77.98
70830;SHT30;58451;51.550;7.208;2024-01-30T05:17:27;8.36;77.88
70830;SHT30;58451;51.550;7.208;2024-01-30T05:18:59;8.35;77.82
70830;SHT30;58451;51.550;7.208;2024-01-30T05:20:34;8.34;77.80
70830;SHT30;58451;51.550;7.208;2024-01-30T05:22:06;8.34;77.77
70830;SHT30;58451;51.550;7.208;2024-01-30T05:23:38;8.34;77.77
70830;SHT30;58451;51.550;7.208;2024-01-30T05:25:09;8.33;77.77
70830;SHT30;58451;51.550;7.208;2024-01-30T05:26:43;8.33;77.82
70830;SHT30;58451;51.550;7.208;2024-01-30T05:28:14;8.32;77.82
70830;SHT30;58451;51.550;7.208;2024-01-30T05:29:46;8.31;77.85
70830;SHT30;58451;51.550;7.208;2024-01-30T05:31:18;8.32;77.87
70830;SHT30;58451;51.550;7.208;2024-01-30T05:32:50;8.32;77.92
70830;SHT30;58451;51.550;7.208;2024-01-30T05:34:22;8.32;77.88
70830;SHT30;58451;51.550;7.208;2024-01-30T05:35:54;8.32;77.85
70830;SHT30;58451;51.550;7.208;2024-01-30T05:37:26;8.31;77.83
70830;SHT30;58451;51.550;7.208;2024-01-30T05:38:58;8.30;77.90
70830;SHT30;58451;51.550;7.208;2024-01-30T05:40:30;8.29;77.73
70830;SHT30;58451;51.550;7.208;2024-01-30T05:42:02;8.30;77.78
70830;SHT30;58451;51.550;7.208;2024-01-30T05:43:34;8.30;77.82
70830;SHT30;58451;51.550;7.208;2024-01-30T05:45:06;8.28;77.85
70830;SHT30;58451;51.550;7.208;2024-01-30T05:46:39;8.28;77.87
70830;SHT30;58451;51.550;7.208;2024-01-30T05:48:11;8.26;77.87
70830;SHT30;58451;51.550;7.208;2024-01-30T05:49:43;8.25;77.97
70830;SHT30;58451;51.550;7.208;2024-01-30T05:51:15;8.24;77.93
70830;SHT30;58451;51.550;7.208;2024-01-30T05:52:46;8.22;77.90
70830;SHT30;58451;51.550;7.208;2024-01-30T05:54:18;8.20;77.95
70830;SHT30;58451;51.550;7.208;2024-01-30T05:55:50;8.19;77.95
70830;SHT30;58451;51.550;7.208;2024-01-30T05:57:22;8.18;77.95
70830;SHT30;58451;51.550;7.208;2024-01-30T05:58:55;8.14;77.95
70830;SHT30;58451;51.550;7.208;2024-01-30T06:00:27;8.13;77.95
70830;SHT30;58451;51.550;7.208;2024-01-30T06:01:59;8.12;77.95
70830;SHT30;58451;51.550;7.208;2024-01-30T06:03:31;8.09;77.98
70830;SHT30;58451;51.550;7.208;2024-01-30T06:05:03;8.06;77.98
70830;SHT30;58451;51.550;7.208;2024-01-30T06:06:35;8.06;77.97
70830;SHT30;58451;51.550;7.208;2024-01-30T06:08:07;8.03;77.98
70830;SHT30;58451;51.550;7.208;2024-01-30T06:09:39;8.01;78.03
70830;SHT30;58451;51.550;7.208;2024-01-30T06:11:14;7.99;78.03
70830;SHT30;58451;51.550;7.208;2024-01-30T06:12:46;7.97;78.08
70830;SHT30;58451;51.550;7.208;2024-01-30T06:14:22;7.96;78.07
70830;SHT30;58451;51.550;7.208;2024-01-30T06:15:55;7.94;78.17
70830;SHT30;58451;51.550;7.208;2024-01-30T06:17:27;7.94;78.17
70830;SHT30;58451;51.550;7.208;2024-01-30T06:18:59;7.93;78.18
70830;SHT30;58451;51.550;7.208;2024-01-30T06:20:31;7.93;78.18
70830;SHT30;58451;51.550;7.208;2024-01-30T06:22:04;7.92;78.18
70830;SHT30;58451;51.550;7.208;2024-01-30T06:23:36;7.90;78.22
70830;SHT30;58451;51.550;7.208;2024-01-30T06:25:10;7.90;78.23
70830;SHT30;58451;51.550;7.208;2024-01-30T06:26:43;7.91;78.25
70830;SHT30;58451;51.550;7.208;2024-01-30T06:28:16;7.90;78.27
70830;SHT30;58451;51.550;7.208;2024-01-30T06:29:48;7.91;78.28
70830;SHT30;58451;51.550;7.208;2024-01-30T06:31:19;7.92;78.32
70830;SHT30;58451;51.550;7.208;2024-01-30T06:32:54;7.91;78.30
70830;SHT30;58451;51.550;7.208;2024-01-30T06:34:26;7.91;78.33
70830;SHT30;58451;51.550;7.208;2024-01-30T06:35:58;7.92;78.42
70830;SHT30;58451;51.550;7.208;2024-01-30T06:37:30;7.91;78.43
70830;SHT30;58451;51.550;7.208;2024-01-30T06:39:02;7.92;78.43
70830;SHT30;58451;51.550;7.208;2024-01-30T06:41:02;7.93;78.40
70830;SHT30;58451;51.550;7.208;2024-01-30T06:42:34;7.93;78.45
70830;SHT30;58451;51.550;7.208;2024-01-30T06:44:06;7.95;78.47
70830;SHT30;58451;51.550;7.208;2024-01-30T06:45:39;7.96;78.53
70830;SHT30;58451;51.550;7.208;2024-01-30T06:47:11;7.98;78.52
70830;SHT30;58451;51.550;7.208;2024-01-30T06:48:44;7.99;78.50
70830;SHT30;58451;51.550;7.208;2024-01-30T06:50:16;8.00;78.55
70830;SHT30;58451;51.550;7.208;2024-01-30T06:51:48;8.01;78.53
70830;SHT30;58451;51.550;7.208;2024-01-30T06:53:20;8.02;78.55
70830;SHT30;58451;51.550;7.208;2024-01-30T06:54:52;8.02;78.55
70830;SHT30;58451;51.550;7.208;2024-01-30T06:56:24;8.04;78.57
70830;SHT30;58451;51.550;7.208;2024-01-30T06:57:56;8.06;78.60
70830;SHT30;58451;51.550;7.208;2024-01-30T06:59:28;8.07;78.63
70830;SHT30;58451;51.550;7.208;2024-01-30T07:01:00;8.10;78.72
70830;SHT30;58451;51.550;7.208;2024-01-30T07:02:32;8.12;78.65
70830;SHT30;58451;51.550;7.208;2024-01-30T07:04:04;8.18;78.72
70830;SHT30;58451;51.550;7.208;2024-01-30T07:05:36;8.21;78.75
70830;SHT30;58451;51.550;7.208;2024-01-30T07:07:08;8.24;78.72
70830;SHT30;58451;51.550;7.208;2024-01-30T07:08:44;8.27;78.70
70830;SHT30;58451;51.550;7.208;2024-01-30T07:10:15;8.31;78.73
70830;SHT30;58451;51.550;7.208;2024-01-30T07:11:47;8.34;78.80
70830;SHT30;58451;51.550;7.208;2024-01-30T07:13:19;8.38;78.68
70830;SHT30;58451;51.550;7.208;2024-01-30T07:14:51;8.43;78.58
70830;SHT30;58451;51.550;7.208;2024-01-30T07:16:25;8.47;78.47
70830;SHT30;58451;51.550;7.208;2024-01-30T07:17:58;8.51;78.53
70830;SHT30;58451;51.550;7.208;2024-01-30T07:19:30;8.55;78.58
70830;SHT30;58451;51.550;7.208;2024-01-30T07:21:02;8.57;78.55
70830;SHT30;58451;51.550;7.208;2024-01-30T07:22:35;8.60;78.63
70830;SHT30;58451;51.550;7.208;2024-01-30T07:24:07;8.64;78.60
70830;SHT30;58451;51.550;7.208;2024-01-30T07:25:40;8.64;78.53
70830;SHT30;58451;51.550;7.208;2024-01-30T07:27:13;8.67;78.55
70830;SHT30;58451;51.550;7.208;2024-01-30T07:28:46;8.70;78.35
70830;SHT30;58451;51.550;7.208;2024-01-30T07:30:18;8.73;78.37
70830;SHT30;58451;51.550;7.208;2024-01-30T07:31:51;8.75;78.38
70830;SHT30;58451;51.550;7.208;2024-01-30T07:33:23;8.78;78.52
70830;SHT30;58451;51.550;7.208;2024-01-30T07:34:55;8.79;78.37
70830;SHT30;58451;51.550;7.208;2024-01-30T07:36:39;8.82;78.37
70830;SHT30;58451;51.550;7.208;2024-01-30T07:38:10;8.85;78.40
70830;SHT30;58451;51.550;7.208;2024-01-30T07:39:42;8.88;78.40
70830;SHT30;58451;51.550;7.208;2024-01-30T07:41:14;8.91;78.35
70830;SHT30;58451;51.550;7.208;2024-01-30T07:42:47;8.91;78.33
70830;SHT30;58451;51.550;7.208;2024-01-30T07:44:20;8.96;78.32
70830;SHT30;58451;51.550;7.208;2024-01-30T07:45:52;8.98;78.35
70830;SHT30;58451;51.550;7.208;2024-01-30T07:47:24;9.00;78.38
70830;SHT30;58451;51.550;7.208;2024-01-30T07:48:56;9.03;78.38
70830;SHT30;58451;51.550;7.208;2024-01-30T07:50:28;9.07;78.30
70830;SHT30;58451;51.550;7.208;2024-01-30T07:52:00;9.10;78.25
70830;SHT30;58451;51.550;7.208;2024-01-30T07:53:32;9.13;78.23
70830;SHT30;58451;51.550;7.208;2024-01-30T07:55:04;9.15;78.20
70830;SHT30;58451;51.550;7.208;2024-01-30T07:56:39;9.19;78.20
70830;SHT30;58451;51.550;7.208;2024-01-30T07:58:11;9.22;78.18
70830;SHT30;58451;51.550;7.208;2024-01-30T07:59:44;9.25;78.07
70830;SHT30;58451;51.550;7.208;2024-01-30T08:01:17;9.30;78.08
70830;SHT30;58451;51.550;7.208;2024-01-30T08:02:48;9.34;78.15
70830;SHT30;58451;51.550;7.208;2024-01-30T08:04:20;9.38;78.17
70830;SHT30;58451;51.550;7.208;2024-01-30T08:05:53;9.43;78.00
70830;SHT30;58451;51.550;7.208;2024-01-30T08:07:25;9.47;78.03
70830;SHT30;58451;51.550;7.208;2024-01-30T08:08:57;9.51;78.05
70830;SHT30;58451;51.550;7.208;2024-01-30T08:10:30;9.55;78.03
70830;SHT30;58451;51.550;7.208;2024-01-30T08:12:02;9.58;78.00
70830;SHT30;58451;51.550;7.208;2024-01-30T08:13:35;9.63;77.93
70830;SHT30;58451;51.550;7.208;2024-01-30T08:15:07;9.68;77.83
70830;SHT30;58451;51.550;7.208;2024-01-30T08:16:40;9.72;77.83
70830;SHT30;58451;51.550;7.208;2024-01-30T08:18:12;9.75;77.80
70830;SHT30;58451;51.550;7.208;2024-01-30T08:19:44;9.81;77.78
70830;SHT30;58451;51.550;7.208;2024-01-30T08:21:16;9.83;77.25
70830;SHT30;58451;51.550;7.208;2024-01-30T08:22:48;9.88;77.22
70830;SHT30;58451;51.550;7.208;2024-01-30T08:24:20;9.92;76.95
70830;SHT30;58451;51.550;7.208;2024-01-30T08:25:51;9.97;77.13
70830;SHT30;58451;51.550;7.208;2024-01-30T08:27:23;10.03;77.03
70830;SHT30;58451;51.550;7.208;2024-01-30T08:28:55;10.07;77.23
70830;SHT30;58451;51.550;7.208;2024-01-30T08:30:27;10.11;77.22
70830;SHT30;58451;51.550;7.208;2024-01-30T08:31:59;10.16;77.33
70830;SHT30;58451;51.550;7.208;2024-01-30T08:33:31;10.20;77.20
70830;SHT30;58451;51.550;7.208;2024-01-30T08:35:03;10.24;77.20
70830;SHT30;58451;51.550;7.208;2024-01-30T08:36:36;10.27;77.17
70830;SHT30;58451;51.550;7.208;2024-01-30T08:38:08;10.29;77.05
70830;SHT30;58451;51.550;7.208;2024-01-30T08:39:39;10.34;77.07
70830;SHT30;58451;51.550;7.208;2024-01-30T08:41:12;10.38;77.07
70830;SHT30;58451;51.550;7.208;2024-01-30T08:42:43;10.39;76.72
70830;SHT30;58451;51.550;7.208;2024-01-30T08:44:16;10.43;76.83
70830;SHT30;58451;51.550;7.208;2024-01-30T08:45:48;10.48;76.80
70830;SHT30;58451;51.550;7.208;2024-01-30T08:47:20;10.52;76.50
70830;SHT30;58451;51.550;7.208;2024-01-30T08:48:52;10.55;76.62
70830;SHT30;58451;51.550;7.208;2024-01-30T08:50:24;10.59;76.53
70830;SHT30;58451;51.550;7.208;2024-01-30T08:51:56;10.62;76.53
70830;SHT30;58451;51.550;7.208;2024-01-30T08:53:29;10.67;76.48
70830;SHT30;58451;51.550;7.208;2024-01-30T08:55:01;10.72;76.45
70830;SHT30;58451;51.550;7.208;2024-01-30T08:56:33;10.75;76.47
70830;SHT30;58451;51.550;7.208;2024-01-30T08:58:05;10.78;76.18
70830;SHT30;58451;51.550;7.208;2024-01-30T08:59:37;10.82;75.90
70830;SHT30;58451;51.550;7.208;2024-01-30T09:01:09;10.85;76.22
70830;SHT30;58451;51.550;7.208;2024-01-30T09:02:44;10.90;76.02
70830;SHT30;58451;51.550;7.208;2024-01-30T09:04:16;10.94;75.97
70830;SHT30;58451;51.550;7.208;2024-01-30T09:05:48;10.98;75.85
70830;SHT30;58451;51.550;7.208;2024-01-30T09:07:20;11.01;75.92
70830;SHT30;58451;51.550;7.208;2024-01-30T09:08:52;11.04;75.95
70830;SHT30;58451;51.550;7.208;2024-01-30T09:10:24;11.06;75.42
70830;SHT30;58451;51.550;7.208;2024-01-30T09:11:56;11.10;75.53
70830;SHT30;58451;51.550;7.208;2024-01-30T09:13:29;11.15;75.62
70830;SHT30;58451;51.550;7.208;2024-01-30T09:15:01;11.19;75.77
70830;SHT30;58451;51.550;7.208;2024-01-30T09:16:33;11.23;75.73
70830;SHT30;58451;51.550;7.208;2024-01-30T09:18:05;11.25;75.23
70830;SHT30;58451;51.550;7.208;2024-01-30T09:19:38;11.29;75.52
70830;SHT30;58451;51.550;7.208;2024-01-30T09:21:10;11.32;75.43
70830;SHT30;58451;51.550;7.208;2024-01-30T09:22:42;11.35;74.78
70830;SHT30;58451;51.550;7.208;2024-01-30T09:24:13;11.37;74.27
70830;SHT30;58451;51.550;7.208;2024-01-30T09:25:45;11.40;74.73
70830;SHT30;58451;51.550;7.208;2024-01-30T09:27:17;11.43;73.85
70830;SHT30;58451;51.550;7.208;2024-01-30T09:28:49;11.44;73.63
70830;SHT30;58451;51.550;7.208;2024-01-30T09:30:21;11.49;74.10
70830;SHT30;58451;51.550;7.208;2024-01-30T09:31:53;11.52;73.98
70830;SHT30;58451;51.550;7.208;2024-01-30T09:33:25;11.54;73.50
70830;SHT30;58451;51.550;7.208;2024-01-30T09:34:57;11.57;73.70
70830;SHT30;58451;51.550;7.208;2024-01-30T09:36:29;11.59;71.98
70830;SHT30;58451;51.550;7.208;2024-01-30T09:38:01;11.64;72.50
70830;SHT30;58451;51.550;7.208;2024-01-30T09:39:34;11.68;73.45
70830;SHT30;58451;51.550;7.208;2024-01-30T09:41:06;11.72;72.98
70830;SHT30;58451;51.550;7.208;2024-01-30T09:42:46;11.76;72.75
70830;SHT30;58451;51.550;7.208;2024-01-30T09:44:22;11.81;71.80
70830;SHT30;58451;51.550;7.208;2024-01-30T09:45:57;11.85;71.83
70830;SHT30;58451;51.550;7.208;2024-01-30T09:47:37;11.90;70.33
70830;SHT30;58451;51.550;7.208;2024-01-30T09:49:16;11.98;70.80
70830;SHT30;58451;51.550;7.208;2024-01-30T09:50:52;12.06;71.45
70830;SHT30;58451;51.550;7.208;2024-01-30T09:52:25;12.13;72.17
70830;SHT30;58451;51.550;7.208;2024-01-30T09:53:57;12.17;70.37